Time;durP1;ratioP1;P1;durP2;ratioP2;P2;SDS_P1;SDS_P2;PMS_P1;PMS_P2;Temp;Humidity;BMP_temperature;BMP_pressure;BME280_temperature;BME280_humidity;BME280_pressure;Samples;Min_cycle;Max_cycle;Signal;HPM_P1;HPM_P2
2022/11/26 00:00:50;;;;;;;8.80;5.50;;;7.40;38.40;;;;;;5058355;28;20481;-75
2022/11/26 00:03:17;;;;;;;9.93;6.20;;;7.40;38.50;;;;;;5059433;28;20489;-76
2022/11/26 00:05:46;;;;;;;15.57;5.80;;;7.40;38.40;;;;;;5063001;28;20464;-75
2022/11/26 00:08:19;;;;;;;10.93;5.87;;;7.40;38.40;;;;;;5067085;28;20559;-76
2022/11/26 00:10:48;;;;;;;15.17;7.20;;;7.40;38.50;;;;;;5063884;28;20566;-75
2022/11/26 00:13:17;;;;;;;10.50;5.40;;;7.40;38.50;;;;;;5065802;28;20461;-75
2022/11/26 00:15:45;;;;;;;10.60;5.70;;;7.30;38.60;;;;;;5061933;28;20471;-75
2022/11/26 00:18:13;;;;;;;14.93;5.40;;;7.30;38.60;;;;;;5065739;28;20454;-75
2022/11/26 00:20:41;;;;;;;8.40;4.70;;;7.30;38.50;;;;;;5062733;28;20469;-77
2022/11/26 00:23:17;;;;;;;10.20;5.70;;;7.30;38.60;;;;;;5064625;28;20483;-77
2022/11/26 00:25:48;;;;;;;10.03;5.73;;;7.30;38.80;;;;;;5063108;28;20454;-76
2022/11/26 00:28:25;;;;;;;18.27;7.17;;;7.30;38.60;;;;;;5057704;28;20961;-76
2022/11/26 00:30:54;;;;;;;15.13;6.43;;;7.30;38.70;;;;;;5061194;28;20477;-76
2022/11/26 00:33:21;;;;;;;14.93;6.70;;;7.30;38.70;;;;;;5063154;28;20461;-76
2022/11/26 00:35:50;;;;;;;9.33;5.37;;;7.40;38.50;;;;;;5058729;28;20472;-76
2022/11/26 00:38:20;;;;;;;11.17;5.10;;;7.40;38.40;;;;;;5068355;28;20461;-76
2022/11/26 00:40:46;;;;;;;9.70;5.17;;;7.30;38.40;;;;;;5058456;28;20482;-76
2022/11/26 00:43:16;;;;;;;11.60;5.27;;;7.30;38.50;;;;;;5066521;28;21001;-76
2022/11/26 00:45:43;;;;;;;13.50;6.10;;;7.30;38.40;;;;;;5061179;28;20461;-76
2022/11/26 00:48:11;;;;;;;11.00;5.97;;;7.20;38.40;;;;;;5063997;28;20461;-75
2022/11/26 00:50:42;;;;;;;12.43;4.83;;;7.20;38.50;;;;;;5062433;28;20496;-76
2022/11/26 00:53:13;;;;;;;8.93;6.00;;;7.10;38.60;;;;;;5064488;28;20453;-75
2022/11/26 00:55:43;;;;;;;12.83;5.57;;;7.10;38.50;;;;;;5063146;28;20461;-75
2022/11/26 00:58:28;;;;;;;11.10;5.87;;;7.10;38.60;;;;;;5062402;28;20453;-75
2022/11/26 01:00:58;;;;;;;13.37;5.83;;;7.00;38.60;;;;;;5063319;28;20480;-75
2022/11/26 01:03:26;;;;;;;10.93;5.80;;;7.00;38.50;;;;;;5063262;28;20464;-76
2022/11/26 01:05:55;;;;;;;11.07;5.27;;;6.90;38.60;;;;;;5066472;28;20461;-75
2022/11/26 01:08:29;;;;;;;16.53;5.80;;;6.90;38.70;;;;;;5061777;28;20839;-75
2022/11/26 01:10:57;;;;;;;11.17;5.30;;;6.90;38.80;;;;;;5066170;28;21397;-75
2022/11/26 01:13:23;;;;;;;9.70;5.40;;;6.90;38.90;;;;;;5061533;28;20457;-76
2022/11/26 01:15:50;;;;;;;14.70;5.10;;;6.90;38.70;;;;;;5066609;28;20468;-76
2022/11/26 01:18:19;;;;;;;11.90;6.40;;;6.80;38.90;;;;;;5062113;28;20467;-75
2022/11/26 01:20:48;;;;;;;11.10;4.90;;;6.80;38.90;;;;;;5065561;28;20474;-76
2022/11/26 01:23:18;;;;;;;10.10;5.70;;;6.80;39.00;;;;;;5060125;28;21174;-76
2022/11/26 01:25:46;;;;;;;9.60;5.00;;;6.90;39.20;;;;;;5066304;28;20548;-76
2022/11/26 01:28:15;;;;;;;8.53;5.80;;;6.90;39.10;;;;;;5056925;28;21107;-76
2022/11/26 01:30:43;;;;;;;9.37;5.10;;;6.90;39.10;;;;;;5065782;28;20482;-76
2022/11/26 01:33:10;;;;;;;11.03;4.90;;;6.90;39.10;;;;;;5063951;28;20464;-75
2022/11/26 01:35:37;;;;;;;8.33;4.17;;;6.90;39.10;;;;;;5062561;28;20461;-76
2022/11/26 01:38:05;;;;;;;10.53;5.10;;;7.00;39.00;;;;;;5063876;28;20877;-76
2022/11/26 01:40:42;;;;;;;12.47;4.90;;;7.00;39.00;;;;;;5064621;28;20486;-76
2022/11/26 01:43:15;;;;;;;10.63;4.80;;;7.00;39.10;;;;;;5063257;28;20976;-76
2022/11/26 01:45:42;;;;;;;9.40;4.33;;;6.90;39.10;;;;;;5061202;28;20484;-76
2022/11/26 01:48:26;;;;;;;13.80;4.50;;;6.90;39.00;;;;;;5060837;28;20801;-75
2022/11/26 01:50:57;;;;;;;13.73;4.70;;;6.90;39.20;;;;;;5058576;28;20481;-76
2022/11/26 01:53:53;;;;;;;10.10;4.90;;;6.80;39.00;;;;;;5064327;28;20457;-76
2022/11/26 01:56:27;;;;;;;9.53;4.10;;;6.70;39.10;;;;;;5043068;28;20536;-75
2022/11/26 01:58:58;;;;;;;9.77;5.00;;;6.70;39.10;;;;;;5061781;28;20476;-75
2022/11/26 02:01:25;;;;;;;11.90;5.30;;;6.60;39.00;;;;;;5066814;28;20545;-76
2022/11/26 02:04:02;;;;;;;9.40;5.73;;;6.60;39.00;;;;;;5059081;28;20462;-75
2022/11/26 02:06:33;;;;;;;11.00;4.90;;;6.50;39.20;;;;;;5064128;28;20465;-75
2022/11/26 02:09:04;;;;;;;10.93;4.97;;;6.50;39.30;;;;;;5062987;28;20507;-75
2022/11/26 02:11:31;;;;;;;14.73;5.50;;;6.60;39.30;;;;;;5059580;28;20462;-75
2022/11/26 02:14:01;;;;;;;14.37;5.80;;;6.60;39.50;;;;;;5064129;28;20465;-75
2022/11/26 02:16:50;;;;;;;13.70;4.77;;;6.70;39.50;;;;;;5061056;28;20468;-75
2022/11/26 02:19:50;;;;;;;9.80;4.60;;;6.70;39.60;;;;;;5046902;28;20495;-75
2022/11/26 02:22:43;;;;;;;10.47;5.43;;;6.70;39.60;;;;;;5051525;28;20467;-75
2022/11/26 02:25:20;;;;;;;9.70;5.20;;;6.70;39.60;;;;;;5061099;28;20461;-75
2022/11/26 02:28:06;;;;;;;9.93;6.13;;;6.70;39.60;;;;;;5065098;28;20461;-76
2022/11/26 02:30:38;;;;;;;13.53;6.60;;;6.70;39.70;;;;;;5063623;28;20465;-76
2022/11/26 02:33:09;;;;;;;11.67;5.90;;;6.80;39.60;;;;;;5066032;28;20562;-76
2022/11/26 02:35:42;;;;;;;14.13;5.43;;;6.80;39.60;;;;;;5058423;28;20461;-76
2022/11/26 02:38:12;;;;;;;11.73;5.40;;;6.80;39.50;;;;;;5064188;28;20455;-76
2022/11/26 02:40:39;;;;;;;8.80;5.13;;;6.80;39.50;;;;;;5053259;28;20489;-75
2022/11/26 02:43:06;;;;;;;12.20;6.53;;;6.90;39.50;;;;;;5058442;28;20561;-76
2022/11/26 02:45:38;;;;;;;10.37;5.43;;;6.90;39.60;;;;;;5056929;28;20477;-75
2022/11/26 02:48:10;;;;;;;14.03;5.77;;;6.90;39.50;;;;;;5063497;28;20505;-75
2022/11/26 02:50:42;;;;;;;11.47;4.80;;;6.90;39.50;;;;;;5058116;28;20857;-75
2022/11/26 02:53:10;;;;;;;7.10;4.70;;;6.90;39.50;;;;;;5064440;28;21003;-75
2022/11/26 02:55:41;;;;;;;13.53;5.40;;;6.90;39.60;;;;;;5062181;28;20467;-75
2022/11/26 02:58:08;;;;;;;10.30;4.87;;;7.00;39.50;;;;;;5063894;28;20477;-75
2022/11/26 03:00:40;;;;;;;15.17;5.57;;;7.00;39.50;;;;;;5063002;28;20485;-75
2022/11/26 03:03:21;;;;;;;9.77;5.97;;;7.00;39.40;;;;;;5061276;28;20458;-75
2022/11/26 03:05:48;;;;;;;12.80;6.17;;;7.00;39.40;;;;;;5064197;28;20465;-75
2022/11/26 03:08:16;;;;;;;11.40;5.13;;;7.00;39.20;;;;;;5063780;28;20805;-75
2022/11/26 03:10:43;;;;;;;9.80;5.20;;;7.00;39.20;;;;;;5058841;28;20486;-75
2022/11/26 03:13:09;;;;;;;13.33;5.27;;;7.00;39.60;;;;;;5058728;28;20811;-76
2022/11/26 03:15:38;;;;;;;9.53;4.30;;;7.00;39.20;;;;;;5059819;28;20850;-76
2022/11/26 03:18:04;;;;;;;10.70;5.10;;;7.00;39.20;;;;;;5065894;28;20465;-75
2022/11/26 03:20:31;;;;;;;14.00;5.80;;;7.00;39.40;;;;;;5060246;28;20473;-75
2022/11/26 03:22:58;;;;;;;10.67;4.50;;;7.00;39.20;;;;;;5059698;28;20463;-75
2022/11/26 03:25:25;;;;;;;9.37;5.03;;;7.00;39.20;;;;;;5059084;28;20821;-76
2022/11/26 03:27:52;;;;;;;9.10;4.20;;;7.00;39.20;;;;;;5062294;28;20845;-76
2022/11/26 03:30:19;;;;;;;10.43;4.70;;;7.10;39.20;;;;;;5062392;28;20477;-75
2022/11/26 03:32:47;;;;;;;11.80;4.80;;;7.10;39.10;;;;;;5058689;28;20463;-75
2022/11/26 03:35:14;;;;;;;13.83;5.10;;;7.10;39.10;;;;;;5060361;28;20558;-75
2022/11/26 03:37:41;;;;;;;14.00;5.63;;;7.10;39.20;;;;;;5058485;28;20461;-75
2022/11/26 03:40:10;;;;;;;9.27;4.23;;;7.10;39.00;;;;;;5059701;28;20499;-75
2022/11/26 03:42:37;;;;;;;11.50;4.50;;;7.10;39.10;;;;;;5063616;28;20468;-75
2022/11/26 03:45:04;;;;;;;9.93;4.57;;;7.10;39.00;;;;;;5069622;28;20466;-76
2022/11/26 03:47:31;;;;;;;14.20;4.93;;;7.10;39.10;;;;;;5061570;28;20869;-76
2022/11/26 03:49:59;;;;;;;11.77;4.13;;;7.10;39.00;;;;;;5066841;28;20481;-76
2022/11/26 03:52:26;;;;;;;10.60;5.03;;;7.00;38.90;;;;;;5068146;28;20464;-75
2022/11/26 03:54:53;;;;;;;9.10;4.43;;;7.00;38.80;;;;;;5067520;28;20457;-74
2022/11/26 03:57:21;;;;;;;13.40;5.07;;;7.10;38.70;;;;;;5067347;28;20472;-75
2022/11/26 03:59:47;;;;;;;14.30;5.73;;;7.10;38.60;;;;;;5069270;28;20846;-75
2022/11/26 04:02:14;;;;;;;12.43;5.83;;;7.10;38.60;;;;;;5056211;28;20484;-75
2022/11/26 04:04:41;;;;;;;12.23;5.03;;;7.10;38.70;;;;;;5064458;28;20457;-76
2022/11/26 04:07:09;;;;;;;10.87;4.70;;;7.10;38.70;;;;;;5060670;28;20464;-75
2022/11/26 04:09:36;;;;;;;10.13;5.10;;;7.00;38.70;;;;;;5066859;28;20476;-73
2022/11/26 04:12:04;;;;;;;9.97;5.33;;;7.10;38.70;;;;;;5063360;28;20488;-76
2022/11/26 04:14:31;;;;;;;11.00;5.00;;;7.10;39.10;;;;;;5065050;28;20463;-76
2022/11/26 04:16:58;;;;;;;12.50;4.90;;;7.10;38.80;;;;;;5061675;28;20472;-75
2022/11/26 04:19:25;;;;;;;11.13;4.93;;;7.00;38.80;;;;;;5064084;28;20472;-76
2022/11/26 04:21:51;;;;;;;16.70;4.97;;;7.00;38.70;;;;;;5058467;28;20449;-75
2022/11/26 04:24:20;;;;;;;8.40;4.37;;;7.00;38.80;;;;;;5060547;28;21147;-75
2022/11/26 04:26:46;;;;;;;9.33;4.77;;;7.00;38.90;;;;;;5065719;28;20973;-75
2022/11/26 04:29:13;;;;;;;10.73;4.57;;;7.00;38.80;;;;;;5066744;28;21047;-76
2022/11/26 04:31:40;;;;;;;14.40;4.90;;;6.90;38.90;;;;;;5060544;28;20483;-75
2022/11/26 04:34:07;;;;;;;12.07;4.67;;;6.90;38.90;;;;;;5058038;28;20831;-75
2022/11/26 04:36:34;;;;;;;15.63;5.30;;;6.90;38.90;;;;;;5056978;28;21016;-76
2022/11/26 04:39:01;;;;;;;8.63;4.53;;;6.90;39.00;;;;;;5069895;28;21059;-76
2022/11/26 04:41:32;;;;;;;13.07;5.43;;;6.90;39.00;;;;;;5063282;28;20876;-76
2022/11/26 04:43:59;;;;;;;9.90;4.60;;;6.90;39.00;;;;;;5066875;28;21180;-76
2022/11/26 04:46:26;;;;;;;7.77;4.40;;;6.90;39.10;;;;;;5059515;28;20481;-75
2022/11/26 04:48:53;;;;;;;10.53;4.70;;;6.90;39.00;;;;;;5069612;28;20481;-76
2022/11/26 04:51:19;;;;;;;15.33;5.83;;;6.90;38.80;;;;;;5063849;28;20560;-75
2022/11/26 04:53:46;;;;;;;10.60;5.30;;;7.00;38.80;;;;;;5065555;28;20461;-76
2022/11/26 04:56:13;;;;;;;10.60;5.03;;;6.90;38.90;;;;;;5064153;28;20969;-75
2022/11/26 04:58:41;;;;;;;9.23;4.60;;;6.90;38.80;;;;;;5067066;28;20469;-76
2022/11/26 05:01:08;;;;;;;17.23;5.37;;;6.90;38.80;;;;;;5068249;28;20479;-75
2022/11/26 05:03:35;;;;;;;9.53;3.97;;;6.90;38.90;;;;;;5062169;28;20466;-75
2022/11/26 05:06:02;;;;;;;16.07;5.20;;;6.90;38.80;;;;;;5065113;28;20461;-75
2022/11/26 05:08:29;;;;;;;15.70;5.73;;;6.90;38.80;;;;;;5066573;28;20475;-75
2022/11/26 05:10:57;;;;;;;11.43;4.70;;;6.90;38.80;;;;;;5065814;28;20483;-75
2022/11/26 05:13:24;;;;;;;14.27;4.47;;;6.90;38.90;;;;;;5065788;28;20848;-75
2022/11/26 05:15:52;;;;;;;9.80;4.60;;;6.90;39.00;;;;;;5064205;28;20464;-75
2022/11/26 05:18:19;;;;;;;10.83;4.60;;;6.90;38.90;;;;;;5061669;28;20843;-75
2022/11/26 05:20:46;;;;;;;10.33;4.47;;;6.90;38.90;;;;;;5060197;28;20485;-75
2022/11/26 05:23:13;;;;;;;9.37;4.00;;;6.90;38.90;;;;;;5064667;28;20462;-75
2022/11/26 05:25:40;;;;;;;11.37;4.57;;;6.90;38.80;;;;;;5056340;28;20464;-75
2022/11/26 05:28:07;;;;;;;10.07;4.57;;;6.90;38.90;;;;;;5061524;28;20998;-75
2022/11/26 05:30:34;;;;;;;12.33;4.80;;;6.90;38.90;;;;;;5058080;28;20458;-74
2022/11/26 05:33:02;;;;;;;15.50;5.23;;;6.90;39.00;;;;;;5066112;28;20999;-74
2022/11/26 05:35:28;;;;;;;11.83;5.00;;;6.80;38.90;;;;;;5065640;28;20457;-75
2022/11/26 05:37:55;;;;;;;13.20;5.10;;;6.80;39.00;;;;;;5062843;28;20461;-75
2022/11/26 05:40:22;;;;;;;18.23;5.47;;;6.80;39.00;;;;;;5067581;28;20506;-75
2022/11/26 05:42:49;;;;;;;11.73;4.60;;;6.80;39.10;;;;;;5059803;28;20462;-75
2022/11/26 05:45:16;;;;;;;9.60;4.83;;;6.80;39.10;;;;;;5059277;28;20484;-75
2022/11/26 05:47:43;;;;;;;11.43;4.50;;;6.80;39.10;;;;;;5062272;28;20454;-75
2022/11/26 05:50:12;;;;;;;11.10;4.70;;;6.80;39.20;;;;;;5063320;28;20473;-75
2022/11/26 05:52:38;;;;;;;10.93;4.80;;;6.80;39.30;;;;;;5060671;28;20479;-75
2022/11/26 05:55:07;;;;;;;13.03;5.30;;;6.70;39.10;;;;;;5057375;28;20458;-75
2022/11/26 05:57:33;;;;;;;13.00;5.20;;;6.70;39.30;;;;;;5062455;28;21402;-75
2022/11/26 06:00:00;;;;;;;9.53;4.70;;;6.70;39.40;;;;;;5066917;28;20488;-75
2022/11/26 06:02:27;;;;;;;13.60;4.57;;;6.70;39.40;;;;;;5062596;28;20481;-75
2022/11/26 06:04:53;;;;;;;17.73;5.20;;;6.70;39.30;;;;;;5055122;28;20472;-74
2022/11/26 06:07:22;;;;;;;12.27;4.80;;;6.70;39.30;;;;;;5066213;28;20463;-75
2022/11/26 06:09:49;;;;;;;13.63;5.00;;;6.70;39.50;;;;;;5066568;28;20506;-75
2022/11/26 06:12:15;;;;;;;11.10;4.73;;;6.70;39.50;;;;;;5066511;28;20487;-75
2022/11/26 06:14:42;;;;;;;11.43;4.57;;;6.80;39.50;;;;;;5062730;28;20462;-75
2022/11/26 06:17:09;;;;;;;16.40;4.70;;;6.70;39.50;;;;;;5059764;28;20519;-75
2022/11/26 06:19:36;;;;;;;14.20;5.07;;;6.80;39.30;;;;;;5059807;28;20860;-76
2022/11/26 06:22:03;;;;;;;9.10;4.83;;;6.80;39.40;;;;;;5064092;28;20453;-76
2022/11/26 06:24:31;;;;;;;11.60;4.80;;;6.70;39.40;;;;;;5057014;28;20457;-76
2022/11/26 06:26:58;;;;;;;11.27;4.80;;;6.70;39.30;;;;;;5066699;28;20461;-75
2022/11/26 06:29:25;;;;;;;10.60;4.80;;;6.70;39.30;;;;;;5064310;28;20473;-75
2022/11/26 06:31:52;;;;;;;12.07;5.70;;;6.70;39.40;;;;;;5056036;28;20478;-76
2022/11/26 06:34:18;;;;;;;10.90;5.53;;;6.60;39.30;;;;;;5065198;28;20457;-75
2022/11/26 06:36:45;;;;;;;13.40;5.30;;;6.50;39.40;;;;;;5059446;28;20457;-75
2022/11/26 06:39:12;;;;;;;9.00;6.00;;;6.40;39.40;;;;;;5060295;28;20486;-75
2022/11/26 06:41:40;;;;;;;16.20;6.03;;;6.40;39.40;;;;;;5059933;28;20454;-75
2022/11/26 06:44:07;;;;;;;11.13;5.97;;;6.30;39.40;;;;;;5061618;28;20639;-75
2022/11/26 06:46:34;;;;;;;12.60;6.10;;;6.30;39.50;;;;;;5055770;28;20981;-75
2022/11/26 06:49:03;;;;;;;11.60;5.40;;;6.30;39.60;;;;;;5054651;28;20492;-75
2022/11/26 06:51:30;;;;;;;13.10;5.27;;;6.20;39.60;;;;;;5066163;28;20477;-75
2022/11/26 06:53:57;;;;;;;10.67;6.00;;;6.20;39.50;;;;;;5063259;28;20465;-75
2022/11/26 06:56:23;;;;;;;14.90;6.40;;;6.20;39.70;;;;;;5063335;28;20461;-75
2022/11/26 06:58:53;;;;;;;13.33;5.60;;;6.20;39.70;;;;;;5054908;28;20477;-75
2022/11/26 07:01:23;;;;;;;13.00;6.13;;;6.20;39.80;;;;;;5064614;28;20476;-75
2022/11/26 07:03:50;;;;;;;17.07;6.40;;;6.20;40.00;;;;;;5061969;28;20876;-75
2022/11/26 07:06:18;;;;;;;16.20;7.00;;;6.30;39.90;;;;;;5066526;28;20461;-75
2022/11/26 07:08:45;;;;;;;15.83;6.40;;;6.30;39.90;;;;;;5060695;28;20480;-75
2022/11/26 07:11:13;;;;;;;16.60;8.03;;;6.30;39.90;;;;;;5061543;28;20487;-75
2022/11/26 07:13:40;;;;;;;10.80;5.30;;;6.30;40.00;;;;;;5067999;28;20994;-75
2022/11/26 07:16:08;;;;;;;12.60;5.90;;;6.40;39.90;;;;;;5060528;28;20457;-75
2022/11/26 07:18:35;;;;;;;19.17;8.07;;;6.50;39.90;;;;;;5063657;28;20453;-75
2022/11/26 07:21:06;;;;;;;15.00;7.37;;;6.60;39.90;;;;;;5061447;28;20457;-75
2022/11/26 07:23:33;;;;;;;15.53;7.87;;;6.60;39.80;;;;;;5057639;22;20611;-69
2022/11/26 07:26:00;;;;;;;16.07;8.27;;;6.80;39.80;;;;;;5040309;28;20771;-69
2022/11/26 07:28:27;;;;;;;19.03;7.40;;;6.90;39.60;;;;;;5056704;28;20457;-70
2022/11/26 07:30:54;;;;;;;13.93;6.47;;;7.00;39.10;;;;;;5062506;28;20479;-70
2022/11/26 07:33:22;;;;;;;12.07;5.37;;;7.10;38.70;;;;;;5058961;28;20497;-70
2022/11/26 07:35:49;;;;;;;10.07;5.07;;;7.10;38.60;;;;;;5055149;28;20937;-68
2022/11/26 07:38:16;;;;;;;9.97;5.60;;;7.10;38.60;;;;;;5060527;28;20854;-69
2022/11/26 07:40:42;;;;;;;11.90;6.23;;;7.20;38.10;;;;;;5059344;28;20449;-69
2022/11/26 07:43:09;;;;;;;13.10;5.23;;;7.20;37.70;;;;;;5058186;28;20461;-70
2022/11/26 07:45:36;;;;;;;11.73;5.10;;;7.30;37.40;;;;;;5057291;28;20463;-69
2022/11/26 07:48:04;;;;;;;9.53;5.03;;;7.20;37.40;;;;;;5059186;28;20485;-69
2022/11/26 07:50:32;;;;;;;13.17;6.00;;;7.20;37.30;;;;;;5063300;28;20554;-71
2022/11/26 07:52:59;;;;;;;12.40;4.90;;;7.30;37.20;;;;;;5056847;28;20496;-70
2022/11/26 07:55:26;;;;;;;10.77;5.20;;;7.50;36.90;;;;;;5050380;28;20471;-70
2022/11/26 07:57:53;;;;;;;11.27;5.30;;;7.60;37.10;;;;;;5051861;28;20850;-70
2022/11/26 08:00:21;;;;;;;9.20;5.20;;;8.50;37.10;;;;;;5059748;28;20476;-70
2022/11/26 08:02:47;;;;;;;8.33;4.70;;;9.50;34.80;;;;;;5057541;28;20450;-69
2022/11/26 08:05:18;;;;;;;10.70;4.97;;;10.30;32.70;;;;;;5061473;28;20969;-69
2022/11/26 08:07:46;;;;;;;8.67;4.63;;;10.80;30.10;;;;;;5056499;28;20856;-70
2022/11/26 08:10:21;;;;;;;11.83;5.30;;;11.10;29.40;;;;;;5055871;28;20492;-69
2022/11/26 08:12:47;;;;;;;16.07;6.20;;;11.40;28.30;;;;;;5052606;28;20756;-70
2022/11/26 08:15:14;;;;;;;9.77;5.27;;;11.60;27.50;;;;;;5050777;28;20472;-69
2022/11/26 08:17:41;;;;;;;8.37;4.90;;;12.10;26.10;;;;;;5054524;28;21010;-69
2022/11/26 08:20:09;;;;;;;12.23;5.30;;;12.30;25.00;;;;;;5059587;28;20461;-69
2022/11/26 08:22:35;;;;;;;8.67;4.40;;;12.50;24.10;;;;;;5050928;28;21075;-69
2022/11/26 08:25:04;;;;;;;8.77;4.57;;;12.70;23.90;;;;;;5057556;28;20457;-69
2022/11/26 08:27:32;;;;;;;9.40;4.10;;;12.80;23.80;;;;;;5056998;28;20516;-71
2022/11/26 08:29:58;;;;;;;8.40;3.93;;;13.10;22.40;;;;;;5053028;28;20465;-70
2022/11/26 08:32:25;;;;;;;7.70;3.93;;;13.30;21.00;;;;;;5061577;28;20473;-69
2022/11/26 08:34:52;;;;;;;9.20;3.80;;;13.50;21.00;;;;;;5052142;28;20458;-70
2022/11/26 08:37:19;;;;;;;7.17;3.80;;;13.50;19.80;;;;;;5058994;28;20918;-70
2022/11/26 08:39:46;;;;;;;7.43;3.80;;;13.70;19.90;;;;;;5060898;28;20458;-70
2022/11/26 08:42:14;;;;;;;8.50;3.23;;;13.90;19.30;;;;;;5056159;28;20802;-70
2022/11/26 08:44:41;;;;;;;8.93;3.70;;;14.30;18.50;;;;;;5052577;28;20457;-70
2022/11/26 08:47:08;;;;;;;6.23;2.67;;;14.50;17.60;;;;;;5055171;28;20933;-72
2022/11/26 08:49:35;;;;;;;7.70;2.63;;;15.00;17.30;;;;;;5057056;28;20935;-70
2022/11/26 08:52:01;;;;;;;7.20;3.03;;;15.50;15.80;;;;;;5060657;28;20847;-71
2022/11/26 08:54:28;;;;;;;9.80;3.90;;;16.20;14.70;;;;;;5058296;28;20457;-72
2022/11/26 08:56:55;;;;;;;9.93;3.67;;;16.70;14.40;;;;;;5058429;28;20566;-71
2022/11/26 08:59:24;;;;;;;7.47;3.67;;;17.00;13.20;;;;;;5058779;28;20461;-72
2022/11/26 09:01:51;;;;;;;8.77;3.87;;;16.90;12.80;;;;;;5047442;28;22957;-71
2022/11/26 09:04:17;;;;;;;9.00;4.37;;;16.40;12.70;;;;;;5062493;28;20529;-72
2022/11/26 09:06:44;;;;;;;9.83;4.00;;;15.80;12.90;;;;;;5054144;28;20479;-71
2022/11/26 09:09:16;;;;;;;9.87;4.33;;;15.30;13.90;;;;;;5064243;28;20459;-73
2022/11/26 09:11:45;;;;;;;12.43;4.50;;;15.10;14.80;;;;;;5054845;28;20505;-70
2022/11/26 09:14:12;;;;;;;9.67;4.10;;;15.20;15.40;;;;;;5050335;28;20516;-72
2022/11/26 09:16:40;;;;;;;9.03;4.10;;;15.30;15.50;;;;;;5056203;28;20474;-73
2022/11/26 09:19:08;;;;;;;12.63;4.43;;;15.40;15.10;;;;;;5057700;28;20948;-73
2022/11/26 09:21:35;;;;;;;11.60;4.53;;;15.60;15.70;;;;;;5056774;28;20450;-71
2022/11/26 09:24:03;;;;;;;10.80;4.17;;;15.70;15.40;;;;;;5052466;28;20465;-70
2022/11/26 09:26:30;;;;;;;10.27;5.30;;;15.80;14.70;;;;;;5056534;28;20580;-70
2022/11/26 09:28:57;;;;;;;8.20;4.50;;;15.90;14.40;;;;;;5052302;28;20480;-71
2022/11/26 09:31:24;;;;;;;8.37;4.40;;;16.10;14.20;;;;;;5054594;28;20480;-72
2022/11/26 09:33:55;;;;;;;8.60;4.10;;;16.20;14.10;;;;;;5055668;28;20462;-71
2022/11/26 09:36:22;;;;;;;9.53;3.70;;;16.40;14.00;;;;;;5049224;28;20478;-70
2022/11/26 09:38:48;;;;;;;11.73;4.20;;;16.50;13.50;;;;;;5054305;28;21175;-71
2022/11/26 09:41:32;;;;;;;12.47;4.27;;;16.80;13.30;;;;;;5052191;28;20458;-71
2022/11/26 09:44:14;;;;;;;9.30;3.00;;;16.90;12.40;;;;;;5060950;28;20461;-73
2022/11/26 09:46:47;;;;;;;9.60;3.47;;;17.00;12.30;;;;;;5055320;28;20795;-71
2022/11/26 09:49:17;;;;;;;7.93;3.37;;;17.10;12.00;;;;;;5056660;28;20468;-72
2022/11/26 09:51:46;;;;;;;7.90;3.33;;;17.20;12.30;;;;;;5056356;28;20492;-71
2022/11/26 09:54:16;;;;;;;7.37;4.00;;;17.30;11.80;;;;;;5059458;28;20900;-73
2022/11/26 09:56:43;;;;;;;6.60;3.50;;;17.50;11.60;;;;;;5052976;28;20832;-70
2022/11/26 09:59:14;;;;;;;7.30;3.60;;;17.80;11.10;;;;;;5049722;28;20971;-73
2022/11/26 10:01:41;;;;;;;9.43;3.60;;;18.00;10.30;;;;;;5040210;28;20481;-72
2022/11/26 10:04:09;;;;;;;10.77;3.17;;;18.40;9.50;;;;;;5053837;28;20953;-73
2022/11/26 10:06:42;;;;;;;6.37;2.67;;;18.90;9.30;;;;;;5056765;28;20469;-73
2022/11/26 10:09:32;;;;;;;7.63;3.10;;;19.40;7.50;;;;;;5052754;28;20453;-73
2022/11/26 10:12:07;;;;;;;7.13;2.40;;;19.90;6.50;;;;;;5051166;28;20631;-72
2022/11/26 10:14:54;;;;;;;10.67;3.60;;;19.90;6.20;;;;;;5050369;28;20528;-72
2022/11/26 10:17:33;;;;;;;7.97;2.27;;;20.10;5.60;;;;;;5045671;28;20477;-71
2022/11/26 10:20:28;;;;;;;8.20;2.67;;;20.30;5.40;;;;;;5047135;28;20476;-71
2022/11/26 10:23:02;;;;;;;7.20;3.07;;;20.20;5.00;;;;;;5052013;28;20493;-72
2022/11/26 10:25:35;;;;;;;11.07;2.97;;;19.90;5.30;;;;;;5052459;28;20472;-73
2022/11/26 10:28:15;;;;;;;7.90;2.97;;;19.70;6.00;;;;;;5052365;28;20563;-71
2022/11/26 10:30:42;;;;;;;11.07;4.87;;;19.50;6.10;;;;;;5056470;28;20477;-70
2022/11/26 10:33:14;;;;;;;10.27;3.73;;;19.30;6.80;;;;;;5056034;28;21036;-71
2022/11/26 10:35:44;;;;;;;7.97;3.57;;;19.10;7.10;;;;;;5047257;28;20470;-71
2022/11/26 10:38:12;;;;;;;9.43;3.37;;;18.70;7.50;;;;;;5045701;28;20476;-70
2022/11/26 10:40:39;;;;;;;10.93;3.90;;;18.30;7.80;;;;;;5051537;28;20816;-72
2022/11/26 10:43:17;;;;;;;13.20;4.30;;;17.90;8.50;;;;;;5047536;28;20518;-73
2022/11/26 10:45:45;;;;;;;7.53;3.40;;;17.50;9.10;;;;;;5040587;28;20453;-72
2022/11/26 10:48:22;;;;;;;10.30;4.17;;;17.10;9.80;;;;;;5056499;28;20485;-72
2022/11/26 10:51:01;;;;;;;9.97;3.33;;;16.80;10.70;;;;;;5057663;28;20457;-72
2022/11/26 10:53:34;;;;;;;8.77;3.47;;;16.60;11.30;;;;;;5055048;28;20477;-70
2022/11/26 10:56:08;;;;;;;10.37;4.13;;;16.20;11.80;;;;;;5050327;28;20454;-73
2022/11/26 10:58:44;;;;;;;14.53;3.77;;;15.90;12.50;;;;;;5059337;28;20458;-72
2022/11/26 11:01:13;;;;;;;11.13;3.20;;;15.70;13.20;;;;;;5062776;28;20841;-71
2022/11/26 11:03:49;;;;;;;13.93;4.77;;;15.60;13.70;;;;;;5055415;28;20744;-73
2022/11/26 11:06:39;;;;;;;12.93;3.90;;;15.50;13.80;;;;;;5051784;28;20464;-70
2022/11/26 11:09:28;;;;;;;11.43;5.30;;;15.30;14.30;;;;;;5063052;28;20445;-70
2022/11/26 11:12:21;;;;;;;11.23;3.90;;;15.20;14.30;;;;;;5058877;28;22125;-69
2022/11/26 11:14:49;;;;;;;11.13;4.57;;;15.00;14.70;;;;;;5050576;28;20541;-71
2022/11/26 11:17:31;;;;;;;9.30;4.00;;;14.90;14.90;;;;;;5057849;28;20843;-70
2022/11/26 11:20:07;;;;;;;6.97;2.93;;;14.70;15.20;;;;;;5058008;28;20471;-71
2022/11/26 11:22:39;;;;;;;8.23;3.53;;;14.70;15.10;;;;;;5059006;28;20477;-71
2022/11/26 11:25:23;;;;;;;10.53;3.53;;;14.70;15.20;;;;;;5054899;28;20592;-72
2022/11/26 11:27:52;;;;;;;10.90;3.60;;;14.60;15.50;;;;;;5053960;28;20493;-72
2022/11/26 11:30:25;;;;;;;14.40;3.60;;;14.80;15.30;;;;;;5054195;28;20449;-72
2022/11/26 11:32:56;;;;;;;6.83;3.20;;;14.90;15.20;;;;;;5059036;28;20558;-72
2022/11/26 11:35:29;;;;;;;7.83;3.40;;;15.00;15.60;;;;;;5055049;28;20462;-72
2022/11/26 11:37:58;;;;;;;7.27;2.97;;;15.50;14.70;;;;;;5063857;28;20512;-71
2022/11/26 11:40:32;;;;;;;9.23;3.53;;;15.50;14.70;;;;;;5056398;28;20458;-72
2022/11/26 11:43:01;;;;;;;12.10;3.37;;;16.10;14.40;;;;;;5053438;28;20458;-72
2022/11/26 11:45:33;;;;;;;6.67;2.60;;;17.40;12.80;;;;;;5047743;28;20466;-71
2022/11/26 11:48:13;;;;;;;7.80;2.70;;;18.60;10.50;;;;;;5052470;28;20482;-70
2022/11/26 11:50:44;;;;;;;8.13;3.83;;;19.40;8.90;;;;;;5054056;28;20445;-71
2022/11/26 11:53:34;;;;;;;7.63;3.10;;;19.30;8.70;;;;;;5047747;28;20493;-73
2022/11/26 11:56:22;;;;;;;11.23;3.43;;;19.50;7.60;;;;;;5056039;28;21024;-73
2022/11/26 11:59:34;;;;;;;5.90;3.10;;;19.00;7.40;;;;;;5051476;28;20456;-73
2022/11/26 12:02:25;;;;;;;8.50;3.60;;;18.40;8.10;;;;;;5048241;28;21023;-72
2022/11/26 12:05:04;;;;;;;8.27;3.43;;;17.90;8.80;;;;;;5061392;28;20460;-71
2022/11/26 12:07:39;;;;;;;10.17;3.70;;;17.60;9.70;;;;;;5053968;28;20477;-72
2022/11/26 12:10:13;;;;;;;8.70;3.57;;;17.30;10.30;;;;;;5059025;28;20461;-72
2022/11/26 12:12:46;;;;;;;13.33;4.20;;;17.40;10.10;;;;;;5057559;28;20564;-72
2022/11/26 12:15:22;;;;;;;9.00;3.13;;;17.30;10.40;;;;;;5060262;28;20460;-72
2022/11/26 12:17:53;;;;;;;9.37;2.83;;;17.60;9.60;;;;;;5054957;28;20483;-72
2022/11/26 12:20:27;;;;;;;6.77;3.33;;;17.50;9.90;;;;;;5058203;28;20833;-71
2022/11/26 12:22:59;;;;;;;11.37;2.97;;;17.10;10.10;;;;;;5059046;28;20473;-71
2022/11/26 12:25:31;;;;;;;10.90;2.93;;;16.80;10.30;;;;;;5055628;28;20453;-71
2022/11/26 12:28:02;;;;;;;9.20;3.27;;;16.60;10.20;;;;;;5053736;28;21036;-72
2022/11/26 12:30:40;;;;;;;10.20;2.60;;;16.40;10.80;;;;;;5057936;28;20457;-72
2022/11/26 12:33:13;;;;;;;10.70;2.63;;;16.90;10.70;;;;;;5056929;28;20681;-71
2022/11/26 12:35:46;;;;;;;6.73;2.70;;;17.10;10.50;;;;;;5052596;28;20473;-71
2022/11/26 12:38:19;;;;;;;6.53;2.73;;;17.00;10.00;;;;;;5049132;28;20478;-72
2022/11/26 12:40:49;;;;;;;8.10;3.00;;;16.90;9.80;;;;;;5059131;28;20462;-71
2022/11/26 12:43:22;;;;;;;10.50;3.57;;;16.90;10.10;;;;;;5059516;28;20578;-72
2022/11/26 12:45:55;;;;;;;12.17;3.13;;;17.10;9.20;;;;;;5053741;28;20479;-74
2022/11/26 12:48:35;;;;;;;6.60;3.07;;;17.10;9.30;;;;;;5056885;28;20567;-71
2022/11/26 12:51:13;;;;;;;9.10;2.53;;;17.00;9.60;;;;;;5061991;28;20489;-71
2022/11/26 12:53:47;;;;;;;10.10;3.80;;;16.70;9.90;;;;;;5056551;28;20469;-73
2022/11/26 12:56:20;;;;;;;8.60;2.93;;;16.60;10.10;;;;;;5058041;28;20484;-72
2022/11/26 12:58:54;;;;;;;7.53;2.43;;;16.20;10.50;;;;;;5051787;28;20937;-72
2022/11/26 13:01:22;;;;;;;7.87;2.77;;;16.10;11.30;;;;;;5055330;28;20504;-71
2022/11/26 13:03:51;;;;;;;6.50;2.43;;;16.00;11.50;;;;;;5057051;28;20489;-72